Sarasota Bradenton International Airport
KSRQ : rendu visible

Aérodrome :











RETROUVEZ-NOUS SUR...

 
LOGIN :

S'inscrire | Disclaimer

   EN    FR    IT 

 









Légende :    VFR   VFR Marginal   IFR   IFR Intensif   IFR Très Intensif
Visi : 
Plafond : 
>= 8 km
>= 3000ft
5 à 8 km
1000 à 3000 ft
1500m à 5 km
500 à 1000 ft
800 à 1500m
200 à 500 ft
< 800m
< 200 ft
Symboles :   Orages  Brouillard  Fortes neiges  Fortes précipitations  Vent > 20 kt






- Altitude de l'aérodrome : 30 ft
- Code IATA : SRQ


KSRQ - Sarasota Bradenton International

DERNIER METAR :
  • 300653Z AUTO 18013KT 10SM SCT018 24/22 A2989 RMK AO2 SLP120 T02390217 $

METARs EXPIRÉS :
  • 300553Z AUTO 19013KT 10SM FEW017 24/22 A2992 RMK AO2 SLP130 T02390217 10239 20233 56016 $
  • 300532Z AUTO 19009KT 10SM BKN017 24/22 A2993 RMK AO2 T02390217 $
  • 300453Z AUTO 19009KT 10SM CLR 24/22 A2994 RMK AO2 SLP139 T02390217 402670189 $

TAF KSRQ
Valide du 30 à 06h jusqu'au 01 à 06h UTC


300521Z 3006/0106 19009KT P6SM FEW040 BKN250
FM300800 21014KT P6SM VCSH SCT030 BKN100 OVC250
FM301200 23014G21KT P6SM VCTS FEW015CB BKN025
TEMPO 3014/3017 VRB15G25KT 3SM TSRA OVC015CB
FM301800 30010G18KT P6SM SCT025 BKN050
FM302100 31013G20KT P6SM VCSH OVC050
FIR KZMA / Amérique du Nord



MET'MAP, la Météo Aéronautique d'un coup d'oeil ! - Copyright ORBIFLY Décembre 2007 - Disclaimer

ORBIFLY MET'MAP TEAM :

Programmation & Développement : Alexandra Zaïnal
Sur une idée originale de : Baudouin d'Aumeries
Assistance à la programmation : Marc-Olivier Méhu
Soutien technique & logistique : Manuel Goepfert

Contact : metmap@orbifly.com




SOURCES & CREDITS :

   NOAA       Earth
Advisory